createdAt,value
2022-10-26T00:01:25.172Z,99175.76
2022-10-26T00:04:41.309Z,99169.97
2022-10-26T00:07:57.378Z,99174.47
2022-10-26T00:11:14.957Z,99181.12
2022-10-26T00:14:31.348Z,99177.36
2022-10-26T00:17:47.621Z,99180.35
2022-10-26T00:21:09.447Z,99182.72
2022-10-26T00:24:25.665Z,99176.30
2022-10-26T00:27:41.774Z,99181.24
2022-10-26T00:30:59.478Z,99185.48
2022-10-26T00:34:18.418Z,99182.96
2022-10-26T00:37:34.488Z,99192.88
2022-10-26T00:40:50.815Z,99193.50
2022-10-26T00:44:07.846Z,99202.32
2022-10-26T00:47:28.276Z,99195.64
2022-10-26T00:50:47.832Z,99196.48
2022-10-26T00:54:05.580Z,99198.00
2022-10-26T00:57:23.183Z,99191.69
2022-10-26T01:00:39.776Z,99196.01
2022-10-26T01:03:57.253Z,99199.30
2022-10-26T01:07:14.448Z,99190.98
2022-10-26T01:10:30.877Z,99197.40
2022-10-26T01:13:48.783Z,99205.50
2022-10-26T01:17:12.221Z,99202.13
2022-10-26T01:21:05.992Z,99201.13
2022-10-26T01:25:07.297Z,99201.41
2022-10-26T01:28:34.306Z,99192.78
2022-10-26T01:31:54.742Z,99195.44
2022-10-26T01:35:16.245Z,99187.84
2022-10-26T01:38:44.131Z,99202.66
2022-10-26T01:42:03.536Z,99186.61
2022-10-26T01:45:22.661Z,99185.30
2022-10-26T01:48:40.465Z,99192.51
2022-10-26T01:51:58.384Z,99182.48
2022-10-26T01:55:49.083Z,99186.51
2022-10-26T01:59:30.457Z,99185.89
2022-10-26T02:03:09.385Z,99185.42
2022-10-26T02:06:31.768Z,99189.25
2022-10-26T02:09:55.512Z,99189.14
2022-10-26T02:13:17.329Z,99185.70
2022-10-26T02:16:37.701Z,99188.09
2022-10-26T02:19:57.406Z,99185.80
2022-10-26T02:23:15.926Z,99192.13
2022-10-26T02:26:35.365Z,99184.05
2022-10-26T02:29:54.693Z,99185.05
2022-10-26T02:33:13.214Z,99179.73
2022-10-26T02:36:33.809Z,99187.52
2022-10-26T02:39:51.303Z,99185.34
2022-10-26T02:43:12.399Z,99187.67
2022-10-26T02:46:32.055Z,99180.34
2022-10-26T02:49:48.687Z,99184.53
2022-10-26T02:53:10.648Z,99187.82
2022-10-26T02:56:31.429Z,99184.05
2022-10-26T02:59:50.354Z,99189.69
2022-10-26T03:03:08.013Z,99194.17
2022-10-26T03:06:30.240Z,99197.82
2022-10-26T03:09:46.176Z,99204.43
2022-10-26T03:13:02.192Z,99203.92
2022-10-26T03:16:18.922Z,99208.59
2022-10-26T03:19:34.767Z,99212.39
2022-10-26T03:22:52.487Z,99204.79
2022-10-26T03:26:08.727Z,99215.27
2022-10-26T03:29:24.455Z,99215.73
2022-10-26T03:32:40.531Z,99219.73
2022-10-26T03:36:01.983Z,99218.12
2022-10-26T03:39:17.930Z,99230.22
2022-10-26T03:42:33.979Z,99225.42
2022-10-26T03:45:49.673Z,99224.08
2022-10-26T03:49:07.148Z,99223.45
2022-10-26T03:52:24.973Z,99222.00
2022-10-26T03:55:41.142Z,99227.12
2022-10-26T03:58:57.031Z,99226.63
2022-10-26T04:02:13.080Z,99224.15
2022-10-26T04:05:29.162Z,99216.38
2022-10-26T04:08:44.918Z,99226.45
2022-10-26T04:12:00.963Z,99215.69
2022-10-26T04:15:17.981Z,99220.02
2022-10-26T04:18:34.068Z,99226.80
2022-10-26T04:21:49.821Z,99219.53
2022-10-26T04:25:05.721Z,99219.81
2022-10-26T04:28:22.648Z,99226.27
2022-10-26T04:31:38.587Z,99230.72
2022-10-26T04:34:55.367Z,99227.41
2022-10-26T04:38:13.157Z,99221.94
2022-10-26T04:41:29.241Z,99218.11
2022-10-26T04:44:48.694Z,99216.78
2022-10-26T04:48:21.106Z,99221.09
2022-10-26T04:51:37.788Z,99220.28
2022-10-26T04:54:53.777Z,99208.84
2022-10-26T04:58:10.051Z,99218.28
2022-10-26T05:01:26.480Z,99221.44
2022-10-26T05:04:42.744Z,99228.08
2022-10-26T05:08:05.308Z,99225.44
2022-10-26T05:11:22.161Z,99224.72
2022-10-26T05:14:38.232Z,99233.30
2022-10-26T05:17:56.058Z,99236.29
2022-10-26T05:21:13.410Z,99236.45
2022-10-26T05:24:29.787Z,99239.88
2022-10-26T05:27:46.489Z,99240.90
2022-10-26T05:31:03.890Z,99251.13
2022-10-26T05:34:19.940Z,99246.96
2022-10-26T05:37:37.992Z,99255.06
2022-10-26T05:41:01.963Z,99265.13
2022-10-26T05:44:20.361Z,99272.77
2022-10-26T05:47:36.881Z,99271.10
2022-10-26T05:50:53.070Z,99273.06
2022-10-26T05:54:13.631Z,99274.02
2022-10-26T05:57:29.011Z,99274.54
2022-10-26T06:00:49.354Z,99278.52
2022-10-26T06:04:21.059Z,99274.94
2022-10-26T06:07:38.687Z,99279.73
2022-10-26T06:10:56.841Z,99285.58
2022-10-26T06:14:14.567Z,99283.16
2022-10-26T06:17:50.009Z,99284.34
2022-10-26T06:21:21.273Z,99293.64
2022-10-26T06:24:43.400Z,99291.20
2022-10-26T06:28:06.040Z,99299.66
2022-10-26T06:31:23.611Z,99300.91
2022-10-26T06:34:43.709Z,99306.41
2022-10-26T06:38:02.604Z,99308.35
2022-10-26T06:41:22.965Z,99309.09
2022-10-26T06:44:40.901Z,99321.59
2022-10-26T06:48:03.262Z,99324.38
2022-10-26T06:51:23.078Z,99332.50
2022-10-26T06:54:52.897Z,99324.76
2022-10-26T06:58:09.836Z,99342.04
2022-10-26T07:01:27.416Z,99340.39
2022-10-26T07:04:43.698Z,99342.88
2022-10-26T07:07:59.868Z,99347.36
2022-10-26T07:11:16.305Z,99353.16
2022-10-26T07:14:32.420Z,99352.53
2022-10-26T07:17:54.965Z,99359.30
2022-10-26T07:21:11.371Z,99351.30
2022-10-26T07:24:27.529Z,99361.60
2022-10-26T07:27:43.867Z,99363.02
2022-10-26T07:31:00.248Z,99357.43
2022-10-26T07:34:26.055Z,99361.21
2022-10-26T07:37:43.087Z,99363.68
2022-10-26T07:40:59.352Z,99361.58
2022-10-26T07:44:18.419Z,99359.48
2022-10-26T07:47:32.238Z,99367.64
2022-10-26T07:50:48.460Z,99357.31
2022-10-26T07:54:04.457Z,99359.55
2022-10-26T07:57:21.263Z,99363.44
2022-10-26T08:00:38.035Z,99354.64
2022-10-26T08:03:56.375Z,99355.71
2022-10-26T08:07:12.559Z,99347.94
2022-10-26T08:10:28.736Z,99357.69
2022-10-26T08:13:47.536Z,99359.81
2022-10-26T08:17:03.704Z,99364.05
2022-10-26T08:20:22.036Z,99358.09
2022-10-26T08:23:38.428Z,99353.16
2022-10-26T08:26:55.679Z,99351.92
2022-10-26T08:30:12.831Z,99348.61
2022-10-26T08:33:31.106Z,99346.78
2022-10-26T08:36:47.211Z,99353.36
2022-10-26T08:40:03.397Z,99354.19
2022-10-26T08:43:25.789Z,99351.50
2022-10-26T08:46:46.466Z,99351.50
2022-10-26T08:50:07.027Z,99352.13
2022-10-26T08:53:30.196Z,99349.63
2022-10-26T08:56:50.989Z,99356.22
2022-10-26T09:00:11.845Z,99359.72
2022-10-26T09:03:28.800Z,99354.14
2022-10-26T09:06:51.443Z,99358.05
2022-10-26T09:10:17.015Z,99359.48
2022-10-26T09:13:39.129Z,99359.70
2022-10-26T09:17:05.656Z,99358.27
2022-10-26T09:20:52.665Z,99360.91
2022-10-26T09:24:16.851Z,99363.96
2022-10-26T09:27:38.398Z,99365.55
2022-10-26T09:30:56.181Z,99361.16
2022-10-26T09:34:18.138Z,99363.96
2022-10-26T09:37:39.992Z,99370.91
2022-10-26T09:41:01.390Z,99369.44
2022-10-26T09:44:25.668Z,99368.20
2022-10-26T09:47:46.210Z,99363.84
2022-10-26T09:51:04.772Z,99362.93
2022-10-26T09:54:27.630Z,99367.17
2022-10-26T09:57:52.106Z,99366.30
2022-10-26T10:01:08.674Z,99361.64
2022-10-26T10:04:36.280Z,99360.99
2022-10-26T10:07:52.280Z,99359.27
2022-10-26T10:11:12.395Z,99364.80
2022-10-26T10:14:32.456Z,99360.80
2022-10-26T10:17:53.131Z,99365.55
2022-10-26T10:21:11.004Z,99375.13
2022-10-26T10:24:40.183Z,99365.50
2022-10-26T10:28:02.209Z,99371.83
2022-10-26T10:31:32.723Z,99369.67
2022-10-26T10:34:50.187Z,99369.75
2022-10-26T10:38:10.840Z,99366.98
2022-10-26T10:41:32.539Z,99366.02
2022-10-26T10:44:50.798Z,99369.05
2022-10-26T10:48:15.370Z,99366.29
2022-10-26T10:51:33.436Z,99367.33
2022-10-26T10:54:50.822Z,99360.67
2022-10-26T10:58:17.142Z,99365.62
2022-10-26T11:01:38.167Z,99359.03
2022-10-26T11:05:11.486Z,99356.44
2022-10-26T11:08:32.620Z,99359.05
2022-10-26T11:11:53.049Z,99357.96
2022-10-26T11:15:13.169Z,99354.89
2022-10-26T11:18:35.014Z,99359.52
2022-10-26T11:21:56.732Z,99359.43
2022-10-26T11:25:21.710Z,99353.33
2022-10-26T11:28:46.949Z,99360.50
2022-10-26T11:32:09.335Z,99359.52
2022-10-26T11:35:30.271Z,99354.95
2022-10-26T11:38:57.115Z,99355.18
2022-10-26T11:42:21.284Z,99363.94
2022-10-26T11:45:41.835Z,99355.49
2022-10-26T11:49:04.824Z,99349.33
2022-10-26T11:52:30.561Z,99346.34
2022-10-26T11:56:12.080Z,99353.86
2022-10-26T11:59:29.280Z,99354.55
2022-10-26T12:02:49.670Z,99348.83
2022-10-26T12:06:07.419Z,99359.77
2022-10-26T12:09:34.921Z,99355.95
2022-10-26T12:12:54.257Z,99356.76
2022-10-26T12:16:18.707Z,99357.80
2022-10-26T12:19:43.646Z,99354.72
2022-10-26T12:22:59.825Z,99350.23
2022-10-26T12:26:59.531Z,99354.63
2022-10-26T12:30:42.515Z,99348.25
2022-10-26T12:34:01.016Z,99344.59
2022-10-26T12:37:41.377Z,99346.88
2022-10-26T12:41:14.905Z,99344.03
2022-10-26T12:44:46.473Z,99341.38
2022-10-26T12:48:38.882Z,99336.84
2022-10-26T12:51:55.055Z,99342.03
2022-10-26T12:55:46.480Z,99343.91
2022-10-26T12:59:24.740Z,99339.80
2022-10-26T13:02:58.504Z,99344.77
2022-10-26T13:06:48.928Z,99339.41
2022-10-26T13:10:14.556Z,99339.81
2022-10-26T13:13:34.534Z,99346.22
2022-10-26T13:16:54.510Z,99335.09
2022-10-26T13:20:20.543Z,99335.31
2022-10-26T13:23:46.278Z,99334.73
2022-10-26T13:27:50.493Z,99342.38
2022-10-26T13:31:09.371Z,99332.28
2022-10-26T13:34:33.489Z,99343.81
2022-10-26T13:37:54.392Z,99339.70
2022-10-26T13:41:20.046Z,99338.50
2022-10-26T13:44:45.955Z,99338.10
2022-10-26T13:48:07.461Z,99339.80
2022-10-26T13:51:30.074Z,99347.03
2022-10-26T13:54:53.522Z,99344.98
2022-10-26T13:58:23.892Z,99353.02
2022-10-26T14:01:45.958Z,99346.45
2022-10-26T14:05:16.168Z,99347.88
2022-10-26T14:08:36.786Z,99346.86
2022-10-26T14:11:59.004Z,99343.95
2022-10-26T14:15:23.405Z,99344.58
2022-10-26T14:18:44.651Z,99344.80
2022-10-26T14:22:02.058Z,99343.37
2022-10-26T14:25:42.680Z,99345.67
2022-10-26T14:28:56.875Z,99343.63
2022-10-26T14:32:39.293Z,99340.75
2022-10-26T14:35:56.534Z,99342.20
2022-10-26T14:39:20.597Z,99344.06
2022-10-26T14:42:40.489Z,99347.98
2022-10-26T14:46:00.599Z,99348.61
2022-10-26T14:49:25.211Z,99353.98
2022-10-26T14:52:44.359Z,99357.06
2022-10-26T14:55:59.321Z,99348.61
2022-10-26T14:59:30.906Z,99355.59
2022-10-26T15:02:48.271Z,99356.83
2022-10-26T15:06:04.771Z,99355.74
2022-10-26T15:09:45.811Z,99359.39
2022-10-26T15:13:05.315Z,99361.41
2022-10-26T15:16:36.660Z,99363.61
2022-10-26T15:20:03.206Z,99375.28
2022-10-26T15:23:25.470Z,99368.84
2022-10-26T15:26:42.066Z,99374.91
2022-10-26T15:30:11.039Z,99379.15
2022-10-26T15:33:31.703Z,99377.19
2022-10-26T15:36:49.122Z,99379.72
2022-10-26T15:40:07.561Z,99386.03
2022-10-26T15:43:26.749Z,99382.42
2022-10-26T15:46:44.923Z,99386.62
2022-10-26T15:50:01.594Z,99383.42
2022-10-26T15:53:23.742Z,99380.00
2022-10-26T15:56:41.580Z,99387.29
2022-10-26T16:06:11.566Z,99395.27
2022-10-26T16:09:29.897Z,99398.48
2022-10-26T16:12:48.300Z,99397.17
2022-10-26T16:16:09.725Z,99397.84
2022-10-26T16:19:31.468Z,99402.23
2022-10-26T16:22:47.501Z,99396.63
2022-10-26T16:26:04.401Z,99397.09
2022-10-26T16:29:24.886Z,99397.55
2022-10-26T16:32:41.514Z,99402.23
2022-10-26T16:36:05.467Z,99398.83
2022-10-26T16:39:22.148Z,99404.59
2022-10-26T16:42:44.768Z,99401.85
2022-10-26T16:46:01.025Z,99400.10
2022-10-26T16:49:18.958Z,99398.97
2022-10-26T16:52:35.087Z,99404.67
2022-10-26T16:55:51.574Z,99407.39
2022-10-26T16:59:08.234Z,99411.77
2022-10-26T17:02:26.040Z,99413.14
2022-10-26T17:05:52.514Z,99412.14
2022-10-26T17:09:09.491Z,99418.03
2022-10-26T17:12:28.337Z,99415.98
2022-10-26T17:15:44.181Z,99419.56
2022-10-26T17:19:00.945Z,99424.77
2022-10-26T17:22:19.416Z,99432.75
2022-10-26T17:25:35.956Z,99439.06
2022-10-26T17:28:58.292Z,99441.59
2022-10-26T17:32:14.778Z,99446.30
2022-10-26T17:35:30.968Z,99448.17
2022-10-26T17:38:49.264Z,99446.33
2022-10-26T17:42:05.588Z,99446.51
2022-10-26T17:45:24.991Z,99454.97
2022-10-26T17:48:41.775Z,99462.58
2022-10-26T17:51:57.945Z,99464.11
2022-10-26T17:55:15.537Z,99461.98
2022-10-26T17:58:34.431Z,99460.36
2022-10-26T18:01:51.528Z,99467.66
2022-10-26T18:05:08.040Z,99465.84
2022-10-26T18:08:24.743Z,99475.63
2022-10-26T18:11:40.972Z,99477.47
2022-10-26T18:14:57.580Z,99468.50
2022-10-26T18:18:14.218Z,99465.18
2022-10-26T18:21:30.619Z,99468.16
2022-10-26T18:24:52.168Z,99474.81
2022-10-26T18:31:30.549Z,99477.33
2022-10-26T18:34:47.534Z,99485.13
2022-10-26T18:38:04.911Z,99485.48
2022-10-26T18:41:23.435Z,99488.63
2022-10-26T18:44:42.675Z,99490.78
2022-10-26T18:48:00.364Z,99494.60
2022-10-26T18:51:23.593Z,99493.93
2022-10-26T18:54:39.886Z,99498.91
2022-10-26T18:57:57.683Z,99497.59
2022-10-26T19:01:20.290Z,99505.91
2022-10-26T19:04:37.389Z,99503.57
2022-10-26T19:07:54.039Z,99509.22
2022-10-26T19:11:15.529Z,99508.39
2022-10-26T19:14:32.275Z,99522.14
2022-10-26T19:17:51.578Z,99520.48
2022-10-26T19:21:13.437Z,99521.13
2022-10-26T19:24:31.332Z,99530.25
2022-10-26T19:27:47.757Z,99527.91
2022-10-26T19:31:05.001Z,99531.89
2022-10-26T19:34:23.270Z,99534.85
2022-10-26T19:37:39.570Z,99539.95
2022-10-26T19:40:57.867Z,99532.65
2022-10-26T19:44:18.793Z,99544.58
2022-10-26T19:47:35.507Z,99544.06
2022-10-26T19:50:57.006Z,99551.52
2022-10-26T19:54:13.674Z,99556.47
2022-10-26T19:57:30.005Z,99556.47
2022-10-26T20:00:48.241Z,99557.92
2022-10-26T20:04:04.985Z,99558.43
2022-10-26T20:07:23.051Z,99568.52
2022-10-26T20:10:39.572Z,99572.15
2022-10-26T20:13:57.280Z,99565.34
2022-10-26T20:17:13.989Z,99570.31
2022-10-26T20:20:32.548Z,99576.11
2022-10-26T20:23:49.609Z,99575.77
2022-10-26T20:27:05.956Z,99571.28
2022-10-26T20:30:23.332Z,99575.44
2022-10-26T20:33:39.711Z,99574.09
2022-10-26T20:36:56.277Z,99577.67
2022-10-26T20:40:19.602Z,99583.14
2022-10-26T20:43:38.728Z,99593.68
2022-10-26T20:46:57.137Z,99590.84
2022-10-26T20:50:17.499Z,99591.98
2022-10-26T20:53:41.543Z,99596.59
2022-10-26T20:56:59.679Z,99598.42
2022-10-26T21:00:22.817Z,99599.05
2022-10-26T21:03:40.018Z,99596.56
2022-10-26T21:06:56.123Z,99602.05
2022-10-26T21:10:14.062Z,99614.84
2022-10-26T21:13:30.129Z,99601.79
2022-10-26T21:16:46.387Z,99604.14
2022-10-26T21:20:02.504Z,99610.59
2022-10-26T21:23:18.580Z,99604.90
2022-10-26T21:26:34.756Z,99615.30
2022-10-26T21:29:51.103Z,99606.17
2022-10-26T21:33:07.123Z,99608.75
2022-10-26T21:36:23.948Z,99608.39
2022-10-26T21:39:42.753Z,99613.45
2022-10-26T21:43:00.421Z,99615.44
2022-10-26T21:46:18.656Z,99621.34
2022-10-26T21:49:36.613Z,99627.53
2022-10-26T21:52:53.297Z,99623.22
2022-10-26T21:56:17.222Z,99622.84
2022-10-26T21:59:33.414Z,99635.05
2022-10-26T22:02:49.782Z,99627.55
2022-10-26T22:06:06.317Z,99632.31
2022-10-26T22:09:23.890Z,99633.28
2022-10-26T22:12:41.553Z,99640.84
2022-10-26T22:16:08.608Z,99629.89
2022-10-26T22:19:26.215Z,99634.10
2022-10-26T22:22:42.595Z,99636.91
2022-10-26T22:25:58.985Z,99637.50
2022-10-26T22:29:15.909Z,99642.79
2022-10-26T22:32:31.885Z,99643.77
2022-10-26T22:35:47.945Z,99642.95
2022-10-26T22:39:05.994Z,99650.34
2022-10-26T22:42:22.765Z,99649.64
2022-10-26T22:45:39.136Z,99646.18
2022-10-26T22:48:59.890Z,99640.89
2022-10-26T22:52:16.243Z,99639.22
2022-10-26T22:55:32.370Z,99639.66
2022-10-26T22:58:48.927Z,99646.89
2022-10-26T23:02:05.222Z,99641.77
2022-10-26T23:05:22.207Z,99645.38
2022-10-26T23:08:39.526Z,99644.14
2022-10-26T23:11:55.746Z,99647.52
2022-10-26T23:15:14.134Z,99651.96
2022-10-26T23:18:31.506Z,99647.80
2022-10-26T23:21:48.797Z,99653.28
2022-10-26T23:25:05.410Z,99654.80
2022-10-26T23:28:21.482Z,99655.92
2022-10-26T23:31:38.386Z,99663.03
2022-10-26T23:34:54.824Z,99656.66
2022-10-26T23:38:11.167Z,99659.88
2022-10-26T23:41:30.014Z,99654.86
2022-10-26T23:44:46.182Z,99658.93
2022-10-26T23:48:02.282Z,99666.58
2022-10-26T23:51:18.274Z,99664.48
2022-10-26T23:54:34.337Z,99666.00
2022-10-26T23:57:51.208Z,99669.92
